sensor_id;sensor_type;location;lat;lon;timestamp;pressure;altitude;pressure_sealevel;temperature;humidity
69318;BME280;56457;52.190;4.440;2023-03-05T00:00:21;102402.91;;;5.19;100.00
69318;BME280;56457;52.190;4.440;2023-03-05T00:01:22;102403.69;;;5.17;100.00
69318;BME280;56457;52.190;4.440;2023-03-05T00:02:23;102403.59;;;5.15;100.00
69318;BME280;56457;52.190;4.440;2023-03-05T00:03:24;102399.22;;;5.14;100.00
69318;BME280;56457;52.190;4.440;2023-03-05T00:04:24;102397.50;;;5.14;100.00
69318;BME280;56457;52.190;4.440;2023-03-05T00:05:24;102409.72;;;5.16;100.00
69318;BME280;56457;52.190;4.440;2023-03-05T00:06:25;102395.69;;;5.12;100.00
69318;BME280;56457;52.190;4.440;2023-03-05T00:07:26;102394.03;;;5.14;100.00
69318;BME280;56457;52.190;4.440;2023-03-05T00:08:27;102397.59;;;5.16;100.00
69318;BME280;56457;52.190;4.440;2023-03-05T00:09:27;102393.19;;;5.15;100.00
69318;BME280;56457;52.190;4.440;2023-03-05T00:10:27;102389.88;;;5.19;100.00
69318;BME280;56457;52.190;4.440;2023-03-05T00:11:28;102390.03;;;5.22;100.00
69318;BME280;56457;52.190;4.440;2023-03-05T00:12:29;102396.03;;;5.21;100.00
69318;BME280;56457;52.190;4.440;2023-03-05T00:13:29;102389.25;;;5.25;100.00
69318;BME280;56457;52.190;4.440;2023-03-05T00:14:30;102388.31;;;5.23;100.00
69318;BME280;56457;52.190;4.440;2023-03-05T00:15:30;102391.78;;;5.23;100.00
69318;BME280;56457;52.190;4.440;2023-03-05T00:16:30;102393.38;;;5.20;100.00
69318;BME280;56457;52.190;4.440;2023-03-05T00:17:31;102393.31;;;5.18;100.00
69318;BME280;56457;52.190;4.440;2023-03-05T00:18:31;102390.72;;;5.18;100.00
69318;BME280;56457;52.190;4.440;2023-03-05T00:19:32;102393.28;;;5.17;100.00
69318;BME280;56457;52.190;4.440;2023-03-05T00:20:33;102388.06;;;5.17;100.00
69318;BME280;56457;52.190;4.440;2023-03-05T00:21:34;102381.97;;;5.16;100.00
69318;BME280;56457;52.190;4.440;2023-03-05T00:22:35;102381.16;;;5.17;100.00
69318;BME280;56457;52.190;4.440;2023-03-05T00:23:36;102385.38;;;5.15;100.00
69318;BME280;56457;52.190;4.440;2023-03-05T00:24:36;102386.22;;;5.14;100.00
69318;BME280;56457;52.190;4.440;2023-03-05T00:25:36;102380.06;;;5.12;100.00
69318;BME280;56457;52.190;4.440;2023-03-05T00:26:37;102375.69;;;5.11;100.00
69318;BME280;56457;52.190;4.440;2023-03-05T00:27:38;102378.16;;;5.08;100.00
69318;BME280;56457;52.190;4.440;2023-03-05T00:28:38;102384.25;;;5.08;100.00
69318;BME280;56457;52.190;4.440;2023-03-05T00:29:38;102380.91;;;5.11;100.00
69318;BME280;56457;52.190;4.440;2023-03-05T00:30:39;102381.50;;;5.04;100.00
69318;BME280;56457;52.190;4.440;2023-03-05T00:31:39;102376.22;;;5.02;100.00
69318;BME280;56457;52.190;4.440;2023-03-05T00:32:40;102381.41;;;5.02;100.00
69318;BME280;56457;52.190;4.440;2023-03-05T00:33:40;102382.38;;;5.04;100.00
69318;BME280;56457;52.190;4.440;2023-03-05T00:34:40;102377.19;;;5.04;100.00
69318;BME280;56457;52.190;4.440;2023-03-05T00:35:41;102376.28;;;5.04;100.00
69318;BME280;56457;52.190;4.440;2023-03-05T00:36:43;102379.78;;;5.04;100.00
69318;BME280;56457;52.190;4.440;2023-03-05T00:37:44;102386.69;;;5.04;100.00
69318;BME280;56457;52.190;4.440;2023-03-05T00:38:44;102369.28;;;5.03;100.00
69318;BME280;56457;52.190;4.440;2023-03-05T00:39:44;102369.38;;;5.04;100.00
69318;BME280;56457;52.190;4.440;2023-03-05T00:40:45;102366.69;;;5.03;100.00
69318;BME280;56457;52.190;4.440;2023-03-05T00:41:45;102368.41;;;5.02;100.00
69318;BME280;56457;52.190;4.440;2023-03-05T00:42:45;102364.03;;;5.01;100.00
69318;BME280;56457;52.190;4.440;2023-03-05T00:43:46;102369.19;;;5.00;100.00
69318;BME280;56457;52.190;4.440;2023-03-05T00:44:46;102364.03;;;5.01;100.00
69318;BME280;56457;52.190;4.440;2023-03-05T00:45:47;102370.91;;;4.99;100.00
69318;BME280;56457;52.190;4.440;2023-03-05T00:46:47;102366.59;;;5.00;100.00
69318;BME280;56457;52.190;4.440;2023-03-05T00:47:47;102368.34;;;5.01;100.00
69318;BME280;56457;52.190;4.440;2023-03-05T00:48:48;102370.22;;;5.03;100.00
69318;BME280;56457;52.190;4.440;2023-03-05T00:49:48;102364.09;;;5.03;100.00
69318;BME280;56457;52.190;4.440;2023-03-05T00:50:48;102366.88;;;5.07;100.00
69318;BME280;56457;52.190;4.440;2023-03-05T00:51:49;102369.53;;;5.09;100.00
69318;BME280;56457;52.190;4.440;2023-03-05T00:52:49;102365.16;;;5.08;100.00
69318;BME280;56457;52.190;4.440;2023-03-05T00:53:49;102370.44;;;5.09;100.00
69318;BME280;56457;52.190;4.440;2023-03-05T00:54:50;102363.53;;;5.10;100.00
69318;BME280;56457;52.190;4.440;2023-03-05T00:55:50;102360.97;;;5.11;100.00
69318;BME280;56457;52.190;4.440;2023-03-05T00:56:50;102362.75;;;5.12;100.00
69318;BME280;56457;52.190;4.440;2023-03-05T00:57:51;102352.47;;;5.16;100.00
69318;BME280;56457;52.190;4.440;2023-03-05T00:58:51;102357.78;;;5.19;100.00
69318;BME280;56457;52.190;4.440;2023-03-05T00:59:52;102360.38;;;5.19;100.00
69318;BME280;56457;52.190;4.440;2023-03-05T01:00:55;102348.31;;;5.21;100.00
69318;BME280;56457;52.190;4.440;2023-03-05T01:01:56;102350.16;;;5.23;100.00
69318;BME280;56457;52.190;4.440;2023-03-05T01:02:56;102357.97;;;5.23;100.00
69318;BME280;56457;52.190;4.440;2023-03-05T01:03:56;102354.53;;;5.24;100.00
69318;BME280;56457;52.190;4.440;2023-03-05T01:04:58;102349.31;;;5.24;100.00
69318;BME280;56457;52.190;4.440;2023-03-05T01:05:59;102349.28;;;5.23;100.00
69318;BME280;56457;52.190;4.440;2023-03-05T01:06:59;102343.22;;;5.24;100.00
69318;BME280;56457;52.190;4.440;2023-03-05T01:07:59;102344.13;;;5.24;100.00
69318;BME280;56457;52.190;4.440;2023-03-05T01:09:00;102340.69;;;5.25;100.00
69318;BME280;56457;52.190;4.440;2023-03-05T01:10:00;102345.06;;;5.26;100.00
69318;BME280;56457;52.190;4.440;2023-03-05T01:11:01;102337.38;;;5.29;100.00
69318;BME280;56457;52.190;4.440;2023-03-05T01:12:01;102342.50;;;5.28;100.00
69318;BME280;56457;52.190;4.440;2023-03-05T01:13:02;102340.81;;;5.28;100.00
69318;BME280;56457;52.190;4.440;2023-03-05T01:14:02;102338.22;;;5.28;100.00
69318;BME280;56457;52.190;4.440;2023-03-05T01:15:03;102333.09;;;5.31;100.00
69318;BME280;56457;52.190;4.440;2023-03-05T01:16:04;102340.06;;;5.32;100.00
69318;BME280;56457;52.190;4.440;2023-03-05T01:17:04;102334.91;;;5.34;100.00
69318;BME280;56457;52.190;4.440;2023-03-05T01:18:05;102343.69;;;5.36;100.00
69318;BME280;56457;52.190;4.440;2023-03-05T01:19:05;102341.78;;;5.32;100.00
69318;BME280;56457;52.190;4.440;2023-03-05T01:20:06;102336.81;;;5.38;100.00
69318;BME280;56457;52.190;4.440;2023-03-05T01:21:06;102334.78;;;5.29;100.00
69318;BME280;56457;52.190;4.440;2023-03-05T01:22:07;102332.88;;;5.25;100.00
69318;BME280;56457;52.190;4.440;2023-03-05T01:23:07;102337.91;;;5.21;100.00
69318;BME280;56457;52.190;4.440;2023-03-05T01:24:07;102339.50;;;5.17;100.00
69318;BME280;56457;52.190;4.440;2023-03-05T01:25:08;102337.56;;;5.11;100.00
69318;BME280;56457;52.190;4.440;2023-03-05T01:26:08;102335.59;;;5.06;100.00
69318;BME280;56457;52.190;4.440;2023-03-05T01:27:08;102338.91;;;5.02;100.00
69318;BME280;56457;52.190;4.440;2023-03-05T01:28:09;102337.84;;;4.97;100.00
69318;BME280;56457;52.190;4.440;2023-03-05T01:29:09;102332.53;;;4.94;100.00
69318;BME280;56457;52.190;4.440;2023-03-05T01:30:10;102341.03;;;4.90;100.00
69318;BME280;56457;52.190;4.440;2023-03-05T01:31:11;102343.63;;;4.90;100.00
69318;BME280;56457;52.190;4.440;2023-03-05T01:32:11;102338.38;;;4.88;100.00
69318;BME280;56457;52.190;4.440;2023-03-05T01:33:12;102336.47;;;4.84;100.00
69318;BME280;56457;52.190;4.440;2023-03-05T01:34:12;102337.38;;;4.84;100.00
69318;BME280;56457;52.190;4.440;2023-03-05T01:35:16;102333.00;;;4.83;100.00
69318;BME280;56457;52.190;4.440;2023-03-05T01:36:17;102324.94;;;4.77;100.00
69318;BME280;56457;52.190;4.440;2023-03-05T01:37:17;102325.72;;;4.75;100.00
69318;BME280;56457;52.190;4.440;2023-03-05T01:38:18;102323.13;;;4.75;100.00
69318;BME280;56457;52.190;4.440;2023-03-05T01:39:18;102320.53;;;4.75;100.00
69318;BME280;56457;52.190;4.440;2023-03-05T01:40:28;102315.50;;;4.79;100.00
69318;BME280;56457;52.190;4.440;2023-03-05T01:41:29;102309.28;;;4.76;100.00
69318;BME280;56457;52.190;4.440;2023-03-05T01:42:29;102317.94;;;4.75;100.00
69318;BME280;56457;52.190;4.440;2023-03-05T01:43:29;102315.19;;;4.72;100.00
69318;BME280;56457;52.190;4.440;2023-03-05T01:44:30;102315.09;;;4.69;100.00
69318;BME280;56457;52.190;4.440;2023-03-05T01:45:31;102306.34;;;4.67;100.00
69318;BME280;56457;52.190;4.440;2023-03-05T01:46:35;102317.69;;;4.69;100.00
69318;BME280;56457;52.190;4.440;2023-03-05T01:47:36;102310.66;;;4.66;100.00
69318;BME280;56457;52.190;4.440;2023-03-05T01:48:36;102310.72;;;4.68;100.00
69318;BME280;56457;52.190;4.440;2023-03-05T01:49:39;102304.63;;;4.67;100.00
69318;BME280;56457;52.190;4.440;2023-03-05T01:50:40;102307.16;;;4.66;100.00
69318;BME280;56457;52.190;4.440;2023-03-05T01:52:04;102308.84;;;4.65;100.00
69318;BME280;56457;52.190;4.440;2023-03-05T01:53:01;102303.59;;;4.64;100.00
69318;BME280;56457;52.190;4.440;2023-03-05T01:54:03;102297.56;;;4.65;100.00
69318;BME280;56457;52.190;4.440;2023-03-05T01:55:09;102295.94;;;4.67;100.00
69318;BME280;56457;52.190;4.440;2023-03-05T01:56:11;102291.63;;;4.67;100.00
69318;BME280;56457;52.190;4.440;2023-03-05T01:57:13;102281.16;;;4.66;100.00
69318;BME280;56457;52.190;4.440;2023-03-05T01:58:15;102282.06;;;4.66;100.00
69318;BME280;56457;52.190;4.440;2023-03-05T01:59:16;102284.78;;;4.69;100.00
69318;BME280;56457;52.190;4.440;2023-03-05T02:01:02;102292.47;;;4.66;100.00
69318;BME280;56457;52.190;4.440;2023-03-05T02:01:39;102276.88;;;4.66;100.00
69318;BME280;56457;52.190;4.440;2023-03-05T02:02:41;102280.25;;;4.65;100.00
69318;BME280;56457;52.190;4.440;2023-03-05T02:03:42;102277.63;;;4.64;100.00
69318;BME280;56457;52.190;4.440;2023-03-05T02:04:45;102276.88;;;4.66;100.00
69318;BME280;56457;52.190;4.440;2023-03-05T02:05:45;102266.47;;;4.66;100.00
69318;BME280;56457;52.190;4.440;2023-03-05T02:06:46;102276.03;;;4.67;100.00
69318;BME280;56457;52.190;4.440;2023-03-05T02:07:46;102272.56;;;4.67;100.00
69318;BME280;56457;52.190;4.440;2023-03-05T02:08:47;102272.47;;;4.65;100.00
69318;BME280;56457;52.190;4.440;2023-03-05T02:09:47;102267.28;;;4.65;100.00
69318;BME280;56457;52.190;4.440;2023-03-05T02:10:48;102261.28;;;4.66;100.00
69318;BME280;56457;52.190;4.440;2023-03-05T02:11:49;102266.47;;;4.66;100.00
69318;BME280;56457;52.190;4.440;2023-03-05T02:12:51;102263.97;;;4.69;100.00
69318;BME280;56457;52.190;4.440;2023-03-05T02:13:52;102260.34;;;4.66;100.00
69318;BME280;56457;52.190;4.440;2023-03-05T02:14:52;102256.06;;;4.66;100.00
69318;BME280;56457;52.190;4.440;2023-03-05T02:15:59;102257.66;;;4.63;100.00
69318;BME280;56457;52.190;4.440;2023-03-05T02:17:00;102259.41;;;4.64;100.00
69318;BME280;56457;52.190;4.440;2023-03-05T02:18:00;102262.94;;;4.66;100.00
69318;BME280;56457;52.190;4.440;2023-03-05T02:19:02;102256.97;;;4.67;100.00
69318;BME280;56457;52.190;4.440;2023-03-05T02:20:06;102254.34;;;4.67;100.00
69318;BME280;56457;52.190;4.440;2023-03-05T02:21:07;102253.56;;;4.69;100.00
69318;BME280;56457;52.190;4.440;2023-03-05T02:22:13;102248.31;;;4.68;100.00
69318;BME280;56457;52.190;4.440;2023-03-05T02:23:13;102250.09;;;4.69;100.00
69318;BME280;56457;52.190;4.440;2023-03-05T02:24:15;102251.03;;;4.71;100.00
69318;BME280;56457;52.190;4.440;2023-03-05T02:25:17;102248.28;;;4.66;100.00
69318;BME280;56457;52.190;4.440;2023-03-05T02:26:18;102251.81;;;4.68;100.00
69318;BME280;56457;52.190;4.440;2023-03-05T02:27:20;102242.16;;;4.66;100.00
69318;BME280;56457;52.190;4.440;2023-03-05T02:29:37;102235.91;;;4.61;100.00
69318;BME280;56457;52.190;4.440;2023-03-05T02:30:39;102232.59;;;4.65;100.00
69318;BME280;56457;52.190;4.440;2023-03-05T02:31:40;102235.97;;;4.62;100.00
69318;BME280;56457;52.190;4.440;2023-03-05T02:32:41;102237.97;;;4.69;100.00
69318;BME280;56457;52.190;4.440;2023-03-05T02:33:42;102232.00;;;4.72;100.00
69318;BME280;56457;52.190;4.440;2023-03-05T02:34:42;102232.22;;;4.78;100.00
69318;BME280;56457;52.190;4.440;2023-03-05T02:35:42;102235.00;;;4.82;100.00
69318;BME280;56457;52.190;4.440;2023-03-05T02:36:43;102227.16;;;4.81;100.00
69318;BME280;56457;52.190;4.440;2023-03-05T02:37:43;102233.25;;;4.81;100.00
69318;BME280;56457;52.190;4.440;2023-03-05T02:38:44;102229.81;;;4.82;100.00
69318;BME280;56457;52.190;4.440;2023-03-05T02:39:44;102225.03;;;4.93;100.00
69318;BME280;56457;52.190;4.440;2023-03-05T02:40:45;102230.09;;;4.90;100.00
69318;BME280;56457;52.190;4.440;2023-03-05T02:41:45;102224.09;;;4.91;100.00
69318;BME280;56457;52.190;4.440;2023-03-05T02:42:45;102220.78;;;4.97;100.00
69318;BME280;56457;52.190;4.440;2023-03-05T02:43:46;102215.91;;;5.04;100.00
69318;BME280;56457;52.190;4.440;2023-03-05T02:44:46;102214.00;;;5.00;100.00
69318;BME280;56457;52.190;4.440;2023-03-05T02:45:46;102219.38;;;5.05;100.00
69318;BME280;56457;52.190;4.440;2023-03-05T02:46:47;102216.84;;;5.06;100.00
69318;BME280;56457;52.190;4.440;2023-03-05T02:47:47;102221.19;;;5.07;100.00
69318;BME280;56457;52.190;4.440;2023-03-05T02:48:47;102225.34;;;5.02;100.00
69318;BME280;56457;52.190;4.440;2023-03-05T02:49:49;102224.22;;;4.96;100.00
69318;BME280;56457;52.190;4.440;2023-03-05T02:50:49;102240.34;;;4.85;100.00
69318;BME280;56457;52.190;4.440;2023-03-05T02:51:49;102230.81;;;4.64;100.00
69318;BME280;56457;52.190;4.440;2023-03-05T02:52:49;102231.63;;;4.40;100.00
69318;BME280;56457;52.190;4.440;2023-03-05T02:53:50;102229.50;;;4.30;100.00
69318;BME280;56457;52.190;4.440;2023-03-05T02:54:51;102228.19;;;4.19;100.00
69318;BME280;56457;52.190;4.440;2023-03-05T02:55:51;102233.13;;;4.13;100.00
69318;BME280;56457;52.190;4.440;2023-03-05T02:56:51;102225.94;;;4.05;100.00
69318;BME280;56457;52.190;4.440;2023-03-05T02:57:52;102218.56;;;4.16;100.00
69318;BME280;56457;52.190;4.440;2023-03-05T02:58:52;102228.78;;;4.12;100.00
69318;BME280;56457;52.190;4.440;2023-03-05T02:59:52;102226.91;;;4.09;100.00
69318;BME280;56457;52.190;4.440;2023-03-05T03:00:53;102230.53;;;4.13;100.00
69318;BME280;56457;52.190;4.440;2023-03-05T03:01:53;102229.84;;;4.17;100.00
69318;BME280;56457;52.190;4.440;2023-03-05T03:02:53;102229.91;;;4.18;100.00
69318;BME280;56457;52.190;4.440;2023-03-05T03:03:53;102229.91;;;4.18;100.00
69318;BME280;56457;52.190;4.440;2023-03-05T03:04:54;102235.78;;;4.14;100.00
69318;BME280;56457;52.190;4.440;2023-03-05T03:05:54;102236.03;;;4.20;100.00
69318;BME280;56457;52.190;4.440;2023-03-05T03:06:54;102238.69;;;4.22;100.00
69318;BME280;56457;52.190;4.440;2023-03-05T03:07:55;102232.50;;;4.18;100.00
69318;BME280;56457;52.190;4.440;2023-03-05T03:08:56;102228.19;;;4.19;100.00
69318;BME280;56457;52.190;4.440;2023-03-05T03:09:56;102227.38;;;4.20;100.00
69318;BME280;56457;52.190;4.440;2023-03-05T03:11:02;102227.50;;;4.23;100.00
69318;BME280;56457;52.190;4.440;2023-03-05T03:12:03;102216.44;;;4.28;100.00
69318;BME280;56457;52.190;4.440;2023-03-05T03:13:04;102214.81;;;4.30;100.00
69318;BME280;56457;52.190;4.440;2023-03-05T03:14:04;102213.69;;;4.24;100.00
69318;BME280;56457;52.190;4.440;2023-03-05T03:15:05;102210.25;;;4.25;100.00
69318;BME280;56457;52.190;4.440;2023-03-05T03:16:07;102212.03;;;4.26;100.00
69318;BME280;56457;52.190;4.440;2023-03-05T03:17:09;102200.69;;;4.24;100.00
69318;BME280;56457;52.190;4.440;2023-03-05T03:18:09;102200.69;;;4.24;100.00
69318;BME280;56457;52.190;4.440;2023-03-05T03:19:10;102201.78;;;4.29;100.00
69318;BME280;56457;52.190;4.440;2023-03-05T03:20:11;102198.38;;;4.31;100.00
69318;BME280;56457;52.190;4.440;2023-03-05T03:21:16;102206.88;;;4.27;100.00
69318;BME280;56457;52.190;4.440;2023-03-05T03:22:17;102197.56;;;4.32;100.00
69318;BME280;56457;52.190;4.440;2023-03-05T03:23:17;102188.00;;;4.31;100.00
69318;BME280;56457;52.190;4.440;2023-03-05T03:24:18;102193.47;;;4.39;100.00
69318;BME280;56457;52.190;4.440;2023-03-05T03:25:19;102183.28;;;4.44;100.00
69318;BME280;56457;52.190;4.440;2023-03-05T03:26:22;102185.09;;;4.46;100.00
69318;BME280;56457;52.190;4.440;2023-03-05T03:27:23;102186.94;;;4.49;100.00
69318;BME280;56457;52.190;4.440;2023-03-05T03:28:23;102181.84;;;4.52;100.00
69318;BME280;56457;52.190;4.440;2023-03-05T03:29:24;102184.41;;;4.50;100.00
69318;BME280;56457;52.190;4.440;2023-03-05T03:30:24;102180.91;;;4.50;100.00
69318;BME280;56457;52.190;4.440;2023-03-05T03:31:24;102179.09;;;4.47;100.00
69318;BME280;56457;52.190;4.440;2023-03-05T03:32:25;102178.25;;;4.48;100.00
69318;BME280;56457;52.190;4.440;2023-03-05T03:33:25;102177.38;;;4.48;100.00
69318;BME280;56457;52.190;4.440;2023-03-05T03:34:25;102179.19;;;4.50;100.00
69318;BME280;56457;52.190;4.440;2023-03-05T03:35:26;102176.59;;;4.50;100.00
69318;BME280;56457;52.190;4.440;2023-03-05T03:36:26;102181.78;;;4.50;100.00
69318;BME280;56457;52.190;4.440;2023-03-05T03:37:27;102171.41;;;4.50;100.00
69318;BME280;56457;52.190;4.440;2023-03-05T03:38:27;102178.38;;;4.51;100.00
69318;BME280;56457;52.190;4.440;2023-03-05T03:39:27;102174.13;;;4.53;100.00
69318;BME280;56457;52.190;4.440;2023-03-05T03:40:30;102175.94;;;4.56;100.00
69318;BME280;56457;52.190;4.440;2023-03-05T03:41:31;102175.13;;;4.57;100.00
69318;BME280;56457;52.190;4.440;2023-03-05T03:42:31;102167.31;;;4.57;100.00
69318;BME280;56457;52.190;4.440;2023-03-05T03:43:32;102169.97;;;4.58;100.00
69318;BME280;56457;52.190;4.440;2023-03-05T03:44:32;102164.03;;;4.61;100.00
69318;BME280;56457;52.190;4.440;2023-03-05T03:45:33;102166.63;;;4.61;100.00
69318;BME280;56457;52.190;4.440;2023-03-05T03:46:33;102170.97;;;4.62;100.00
69318;BME280;56457;52.190;4.440;2023-03-05T03:49:15;102161.47;;;4.63;100.00
69318;BME280;56457;52.190;4.440;2023-03-05T03:50:17;102164.06;;;4.63;100.00
69318;BME280;56457;52.190;4.440;2023-03-05T03:51:17;102170.16;;;4.63;100.00
69318;BME280;56457;52.190;4.440;2023-03-05T03:52:17;102158.97;;;4.66;100.00
69318;BME280;56457;52.190;4.440;2023-03-05T03:53:18;102164.16;;;4.66;100.00
69318;BME280;56457;52.190;4.440;2023-03-05T03:54:18;102163.28;;;4.65;100.00
69318;BME280;56457;52.190;4.440;2023-03-05T03:55:19;102160.69;;;4.65;100.00
69318;BME280;56457;52.190;4.440;2023-03-05T03:56:19;102165.88;;;4.65;100.00
69318;BME280;56457;52.190;4.440;2023-03-05T03:57:19;102154.69;;;4.66;100.00
69318;BME280;56457;52.190;4.440;2023-03-05T03:58:20;102163.28;;;4.65;100.00
69318;BME280;56457;52.190;4.440;2023-03-05T03:59:20;102151.91;;;4.62;100.00
69318;BME280;56457;52.190;4.440;2023-03-05T04:00:20;102155.44;;;4.64;100.00
69318;BME280;56457;52.190;4.440;2023-03-05T04:01:21;102155.50;;;4.65;100.00
69318;BME280;56457;52.190;4.440;2023-03-05T04:02:21;102152.88;;;4.65;100.00
69318;BME280;56457;52.190;4.440;2023-03-05T04:03:22;102151.25;;;4.67;100.00
69318;BME280;56457;52.190;4.440;2023-03-05T04:04:22;102147.78;;;4.67;100.00
69318;BME280;56457;52.190;4.440;2023-03-05T04:05:23;102146.06;;;4.67;100.00
69318;BME280;56457;52.190;4.440;2023-03-05T04:06:23;102140.94;;;4.70;100.00
69318;BME280;56457;52.190;4.440;2023-03-05T04:07:23;102140.13;;;4.71;100.00
69318;BME280;56457;52.190;4.440;2023-03-05T04:08:23;102134.13;;;4.72;100.00
69318;BME280;56457;52.190;4.440;2023-03-05T04:09:24;102129.84;;;4.74;100.00
69318;BME280;56457;52.190;4.440;2023-03-05T04:10:24;102130.69;;;4.73;100.00
69318;BME280;56457;52.190;4.440;2023-03-05T04:11:24;102135.09;;;4.76;100.00
69318;BME280;56457;52.190;4.440;2023-03-05T04:12:25;102129.84;;;4.74;100.00
69318;BME280;56457;52.190;4.440;2023-03-05T04:13:25;102128.13;;;4.75;100.00
69318;BME280;56457;52.190;4.440;2023-03-05T04:14:25;102128.09;;;4.73;100.00
69318;BME280;56457;52.190;4.440;2023-03-05T04:15:26;102123.72;;;4.72;100.00
69318;BME280;56457;52.190;4.440;2023-03-05T04:16:26;102127.13;;;4.71;100.00
69318;BME280;56457;52.190;4.440;2023-03-05T04:17:26;102128.00;;;4.72;100.00
69318;BME280;56457;52.190;4.440;2023-03-05T04:18:27;102124.50;;;4.71;100.00
69318;BME280;56457;52.190;4.440;2023-03-05T04:19:27;102130.59;;;4.72;100.00
69318;BME280;56457;52.190;4.440;2023-03-05T04:20:29;102122.69;;;4.69;100.00
69318;BME280;56457;52.190;4.440;2023-03-05T04:21:30;102122.81;;;4.72;100.00
69318;BME280;56457;52.190;4.440;2023-03-05T04:22:30;102126.19;;;4.69;100.00
69318;BME280;56457;52.190;4.440;2023-03-05T04:23:30;102123.72;;;4.72;100.00
69318;BME280;56457;52.190;4.440;2023-03-05T04:24:31;102125.53;;;4.75;100.00
69318;BME280;56457;52.190;4.440;2023-03-05T04:25:31;102122.03;;;4.74;100.00
69318;BME280;56457;52.190;4.440;2023-03-05T04:26:31;102124.81;;;4.79;100.00
69318;BME280;56457;52.190;4.440;2023-03-05T04:27:32;102121.38;;;4.80;100.00
69318;BME280;56457;52.190;4.440;2023-03-05T04:28:33;102122.28;;;4.80;100.00
69318;BME280;56457;52.190;4.440;2023-03-05T04:29:33;102123.16;;;4.81;100.00
69318;BME280;56457;52.190;4.440;2023-03-05T04:30:34;102125.09;;;4.86;100.00
69318;BME280;56457;52.190;4.440;2023-03-05T04:31:34;102125.25;;;4.91;100.00
69318;BME280;56457;52.190;4.440;2023-03-05T04:32:34;102121.69;;;4.89;100.00
69318;BME280;56457;52.190;4.440;2023-03-05T04:33:35;102119.53;;;4.77;100.00
69318;BME280;56457;52.190;4.440;2023-03-05T04:34:38;102124.59;;;4.73;100.00
69318;BME280;56457;52.190;4.440;2023-03-05T04:35:38;102119.88;;;4.63;100.00
69318;BME280;56457;52.190;4.440;2023-03-05T04:36:38;102119.88;;;4.63;100.00
69318;BME280;56457;52.190;4.440;2023-03-05T04:37:39;102125.72;;;4.57;100.00
69318;BME280;56457;52.190;4.440;2023-03-05T04:38:39;102119.66;;;4.56;100.00
69318;BME280;56457;52.190;4.440;2023-03-05T04:39:39;102113.16;;;4.45;100.00
69318;BME280;56457;52.190;4.440;2023-03-05T04:40:39;102120.91;;;4.44;100.00
69318;BME280;56457;52.190;4.440;2023-03-05T04:41:40;102113.94;;;4.43;100.00
69318;BME280;56457;52.190;4.440;2023-03-05T04:42:40;102114.03;;;4.46;100.00
69318;BME280;56457;52.190;4.440;2023-03-05T04:43:41;102118.34;;;4.45;100.00
69318;BME280;56457;52.190;4.440;2023-03-05T04:44:41;102109.81;;;4.48;100.00
69318;BME280;56457;52.190;4.440;2023-03-05T04:45:42;102112.19;;;4.42;100.00
69318;BME280;56457;52.190;4.440;2023-03-05T04:46:42;102109.50;;;4.40;100.00
69318;BME280;56457;52.190;4.440;2023-03-05T04:47:43;102103.50;;;4.41;100.00
69318;BME280;56457;52.190;4.440;2023-03-05T04:48:43;102103.72;;;4.47;100.00
69318;BME280;56457;52.190;4.440;2023-03-05T04:49:43;102099.25;;;4.43;100.00
69318;BME280;56457;52.190;4.440;2023-03-05T04:50:44;102089.72;;;4.44;100.00
69318;BME280;56457;52.190;4.440;2023-03-05T04:51:44;102099.25;;;4.43;100.00
69318;BME280;56457;52.190;4.440;2023-03-05T04:52:44;102091.44;;;4.43;100.00
69318;BME280;56457;52.190;4.440;2023-03-05T04:53:45;102095.75;;;4.43;100.00
69318;BME280;56457;52.190;4.440;2023-03-05T04:54:45;102085.38;;;4.43;100.00
69318;BME280;56457;52.190;4.440;2023-03-05T04:55:45;102087.19;;;4.45;100.00
69318;BME280;56457;52.190;4.440;2023-03-05T04:56:50;102086.44;;;4.48;100.00
69318;BME280;56457;52.190;4.440;2023-03-05T04:57:51;102087.13;;;4.44;100.00
69318;BME280;56457;52.190;4.440;2023-03-05T04:58:51;102079.34;;;4.44;100.00
69318;BME280;56457;52.190;4.440;2023-03-05T04:59:51;102071.53;;;4.44;100.00
69318;BME280;56457;52.190;4.440;2023-03-05T05:00:52;102074.19;;;4.45;100.00
69318;BME280;56457;52.190;4.440;2023-03-05T05:01:52;102078.50;;;4.45;100.00
69318;BME280;56457;52.190;4.440;2023-03-05T05:02:52;102083.59;;;4.42;100.00
69318;BME280;56457;52.190;4.440;2023-03-05T05:03:52;102082.63;;;4.40;100.00
69318;BME280;56457;52.190;4.440;2023-03-05T05:04:53;102086.03;;;4.37;100.00
69318;BME280;56457;52.190;4.440;2023-03-05T05:05:54;102085.97;;;4.36;100.00
69318;BME280;56457;52.190;4.440;2023-03-05T05:06:55;102082.53;;;4.37;100.00
69318;BME280;56457;52.190;4.440;2023-03-05T05:07:56;102081.66;;;4.36;100.00
69318;BME280;56457;52.190;4.440;2023-03-05T05:08:57;102078.19;;;4.36;100.00
69318;BME280;56457;52.190;4.440;2023-03-05T05:09:57;102078.97;;;4.35;100.00
69318;BME280;56457;52.190;4.440;2023-03-05T05:10:58;102079.56;;;4.27;100.00
69318;BME280;56457;52.190;4.440;2023-03-05T05:11:59;102076.97;;;4.27;100.00
69318;BME280;56457;52.190;4.440;2023-03-05T05:12:59;102081.34;;;4.28;100.00
69318;BME280;56457;52.190;4.440;2023-03-05T05:13:59;102076.09;;;4.27;100.00
69318;BME280;56457;52.190;4.440;2023-03-05T05:15:00;102076.16;;;4.28;100.00
69318;BME280;56457;52.190;4.440;2023-03-05T05:16:00;102071.03;;;4.30;100.00
69318;BME280;56457;52.190;4.440;2023-03-05T05:17:01;102070.19;;;4.31;100.00
69318;BME280;56457;52.190;4.440;2023-03-05T05:18:04;102067.56;;;4.29;100.00
69318;BME280;56457;52.190;4.440;2023-03-05T05:19:04;102077.06;;;4.29;100.00
69318;BME280;56457;52.190;4.440;2023-03-05T05:20:05;102070.16;;;4.29;100.00
69318;BME280;56457;52.190;4.440;2023-03-05T05:21:06;102074.56;;;4.32;100.00